Time;durP1;ratioP1;P1;durP2;ratioP2;P2;SDS_P1;SDS_P2;PMS_P1;PMS_P2;Temp;Humidity;BMP_temperature;BMP_pressure;BME280_temperature;BME280_humidity;BME280_pressure;Samples;Min_cycle;Max_cycle;Signal;HPM_P1;HPM_P2
2022/11/06 00:00:18;;;;;;;4.57;2.60;;;;;;;7.16;53.98;101215.94;4986182;28;20041;-74
2022/11/06 00:02:44;;;;;;;6.75;2.65;;;;;;;7.33;54.04;101209.50;4972937;28;20038;-76
2022/11/06 00:07:55;;;;;;;4.88;2.10;;;;;;;7.30;53.77;101196.53;5004295;28;20080;-73
2022/11/06 00:10:20;;;;;;;6.13;2.33;;;;;;;7.49;53.72;101194.41;5008363;28;20124;-72
2022/11/06 00:12:46;;;;;;;5.72;2.13;;;;;;;7.57;53.31;101196.88;4971093;28;20084;-75
2022/11/06 00:15:12;;;;;;;6.75;2.58;;;;;;;7.74;53.19;101192.16;4992887;28;20017;-75
2022/11/06 00:17:38;;;;;;;10.20;2.63;;;;;;;7.43;53.75;101193.69;4984818;28;20053;-77
2022/11/06 00:20:08;;;;;;;4.75;2.58;;;;;;;7.52;53.65;101178.72;4995461;28;20021;-80
2022/11/06 00:22:35;;;;;;;5.97;2.67;;;;;;;7.53;53.51;101169.19;4993789;28;20045;-80
2022/11/06 00:25:02;;;;;;;6.47;2.97;;;;;;;7.58;53.44;101172.59;5013310;28;20092;-80
2022/11/06 00:27:27;;;;;;;6.70;2.30;;;;;;;7.74;52.55;101163.53;5007570;28;20045;-80
2022/11/06 00:29:53;;;;;;;4.97;2.28;;;;;;;7.77;52.88;101169.56;5005481;28;20030;-75
2022/11/06 00:32:19;;;;;;;4.50;2.35;;;;;;;7.67;52.76;101176.72;5004507;28;20037;-70
2022/11/06 00:34:45;;;;;;;5.75;2.45;;;;;;;7.66;52.93;101181.06;4986049;28;20420;-71
2022/11/06 00:37:11;;;;;;;4.20;2.08;;;;;;;7.80;52.58;101172.94;5004294;28;20041;-71
2022/11/06 00:39:36;;;;;;;5.30;1.92;;;;;;;7.72;52.93;101165.31;4996013;28;20037;-70
2022/11/06 00:42:02;;;;;;;4.43;2.00;;;;;;;7.65;52.99;101174.16;5006003;28;20353;-70
2022/11/06 00:44:27;;;;;;;5.32;2.33;;;;;;;7.48;53.53;101169.28;4987765;28;20045;-70
2022/11/06 00:46:53;;;;;;;8.10;2.72;;;;;;;7.86;52.17;101170.19;5005530;28;20036;-70
2022/11/06 00:49:18;;;;;;;7.10;2.53;;;;;;;7.96;52.25;101173.44;5002596;28;20042;-71
2022/11/06 00:51:44;;;;;;;3.95;2.35;;;;;;;7.87;52.24;101171.03;5005225;28;20116;-77
2022/11/06 00:54:10;;;;;;;5.57;2.25;;;;;;;7.51;53.19;101171.84;4987066;28;20108;-76
2022/11/06 00:56:36;;;;;;;10.38;2.67;;;;;;;7.84;52.29;101169.34;5016731;28;20088;-76
2022/11/06 00:59:05;;;;;;;6.65;2.53;;;;;;;7.80;52.17;101166.88;4993124;28;20049;-76
2022/11/06 01:01:33;;;;;;;3.58;2.00;;;;;;;7.32;54.00;101178.31;5008562;28;20095;-76
2022/11/06 01:04:05;;;;;;;6.13;2.25;;;;;;;7.45;53.41;101173.72;5008300;28;20050;-77
2022/11/06 01:06:33;;;;;;;5.05;2.35;;;;;;;7.84;52.60;101168.50;5010205;28;20030;-76
2022/11/06 01:09:00;;;;;;;11.77;2.95;;;;;;;7.73;52.92;101169.63;4975586;28;20074;-77
2022/11/06 01:11:31;;;;;;;9.60;2.88;;;;;;;7.02;55.00;101172.00;5006619;28;20038;-76
2022/11/06 01:13:58;;;;;;;4.15;2.22;;;;;;;7.45;53.35;101171.13;5006997;28;20536;-77
2022/11/06 01:16:24;;;;;;;6.63;3.15;;;;;;;7.94;52.27;101159.59;5006868;28;20038;-76
2022/11/06 01:18:51;;;;;;;5.28;3.08;;;;;;;7.24;54.08;101155.06;4991908;28;20060;-74
2022/11/06 01:21:25;;;;;;;6.53;2.28;;;;;;;7.47;53.50;101153.72;4984558;28;20029;-81
2022/11/06 01:23:59;;;;;;;7.88;2.53;;;;;;;7.26;53.98;101150.69;5008043;28;20033;-80
2022/11/06 01:26:26;;;;;;;5.88;2.88;;;;;;;7.56;53.58;101153.56;5002547;28;20517;-81
2022/11/06 01:28:52;;;;;;;7.55;3.30;;;;;;;7.13;54.85;101164.84;4996622;28;20052;-79
2022/11/06 01:31:21;;;;;;;3.20;2.00;;;;;;;7.59;54.05;101161.28;5008867;28;20041;-79
2022/11/06 01:33:47;;;;;;;7.47;2.47;;;;;;;7.46;54.92;101157.22;4994189;28;20058;-81
2022/11/06 01:36:16;;;;;;;13.57;4.57;;;;;;;7.38;55.20;101152.19;4995584;28;20056;-75
2022/11/06 01:38:43;;;;;;;6.18;2.80;;;;;;;7.11;56.18;101157.09;4988850;28;20425;-75
2022/11/06 01:41:14;;;;;;;7.65;3.05;;;;;;;7.18;56.40;101152.63;4985721;28;20993;-76
2022/11/06 01:43:56;;;;;;;6.63;3.90;;;;;;;6.50;58.76;101159.13;5005864;28;20091;-77
2022/11/06 01:46:25;;;;;;;8.00;3.70;;;;;;;6.73;58.54;101154.41;4992533;28;20034;-74
2022/11/06 01:49:13;;;;;;;9.10;3.22;;;;;;;6.90;58.13;101150.56;4989715;28;20583;-74
2022/11/06 01:51:58;;;;;;;6.50;3.75;;;;;;;6.32;60.26;101149.09;4999344;28;20121;-73
2022/11/06 01:54:26;;;;;;;5.85;3.30;;;;;;;6.74;58.85;101144.00;5004481;28;20050;-77
2022/11/06 01:56:55;;;;;;;7.10;3.10;;;;;;;7.32;56.84;101140.16;4986304;28;20029;-77
2022/11/06 01:59:24;;;;;;;6.38;3.60;;;;;;;6.84;58.22;101136.84;4990572;28;20515;-76
2022/11/06 02:01:50;;;;;;;7.80;4.07;;;;;;;6.95;58.53;101141.84;4980045;28;20431;-74
2022/11/06 02:04:22;;;;;;;10.70;4.00;;;;;;;6.34;60.42;101138.69;5006750;28;20030;-76
2022/11/06 02:06:48;;;;;;;5.50;3.00;;;;;;;6.65;59.46;101134.63;4977555;28;20475;-71
2022/11/06 02:09:14;;;;;;;5.63;3.72;;;;;;;6.74;59.31;101131.00;5007222;28;20048;-71
2022/11/06 02:11:43;;;;;;;15.70;4.28;;;;;;;6.28;60.62;101131.84;5007887;28;20514;-70
2022/11/06 02:14:27;;;;;;;7.80;3.65;;;;;;;6.62;60.18;101132.09;5006511;28;20052;-71
2022/11/06 02:17:01;;;;;;;9.65;3.60;;;;;;;5.97;62.07;101140.16;5005618;28;20107;-72
2022/11/06 02:19:49;;;;;;;13.75;4.63;;;;;;;6.50;60.28;101127.97;5006826;28;20506;-72
2022/11/06 02:22:52;;;;;;;10.63;3.95;;;;;;;6.34;60.63;101131.75;5005119;28;20033;-72
2022/11/06 02:25:38;;;;;;;9.43;3.67;;;;;;;6.60;60.27;101128.69;4990614;28;20095;-74
2022/11/06 02:28:13;;;;;;;8.13;3.78;;;;;;;5.94;61.72;101116.84;5005501;28;20124;-74
2022/11/06 02:30:45;;;;;;;16.60;5.55;;;;;;;6.66;59.48;101123.38;5005806;28;20434;-73
2022/11/06 02:33:43;;;;;;;8.48;4.00;;;;;;;7.14;58.16;101124.13;4990971;28;20522;-73
2022/11/06 02:36:13;;;;;;;9.43;3.72;;;;;;;6.36;60.33;101119.59;4983700;28;20053;-72
2022/11/06 02:38:42;;;;;;;8.73;4.85;;;;;;;6.52;60.02;101114.13;5005741;28;20761;-72
2022/11/06 02:41:16;;;;;;;9.00;4.45;;;;;;;6.84;59.18;101110.88;4992507;28;20037;-72
2022/11/06 02:43:46;;;;;;;13.30;4.43;;;;;;;6.44;60.37;101109.94;4996049;28;20050;-72
2022/11/06 02:46:19;;;;;;;9.55;4.45;;;;;;;6.96;58.81;101109.78;5008402;28;20053;-72
2022/11/06 02:49:03;;;;;;;12.18;5.90;;;;;;;6.13;61.06;101106.13;5005899;28;20041;-72
2022/11/06 02:51:33;;;;;;;7.82;4.85;;;;;;;6.22;60.81;101095.63;5005886;28;20044;-71
2022/11/06 02:54:01;;;;;;;8.00;4.45;;;;;;;6.03;61.44;101090.72;5005234;28;20346;-71
2022/11/06 02:56:32;;;;;;;10.27;5.43;;;;;;;6.54;60.08;101101.97;5004554;28;20030;-72
2022/11/06 02:59:18;;;;;;;19.30;5.45;;;;;;;6.52;60.32;101101.13;5004882;28;20042;-71
2022/11/06 03:01:53;;;;;;;9.05;5.03;;;;;;;6.36;60.70;101103.19;5004815;28;20037;-72
2022/11/06 03:04:26;;;;;;;7.63;4.20;;;;;;;6.11;61.24;101100.16;5005990;28;20176;-71
2022/11/06 03:07:14;;;;;;;12.30;4.25;;;;;;;6.69;59.39;101096.47;5005977;28;20030;-71
2022/11/06 03:09:41;;;;;;;12.77;5.03;;;;;;;6.85;58.87;101090.06;5003764;28;20046;-71
2022/11/06 03:12:29;;;;;;;9.73;4.82;;;;;;;6.09;61.56;101089.78;4978505;28;20118;-71
2022/11/06 03:15:07;;;;;;;7.30;4.18;;;;;;;6.67;60.12;101095.66;4983396;28;20429;-71
2022/11/06 03:17:46;;;;;;;11.57;5.60;;;;;;;6.09;61.75;101085.44;5003960;28;20075;-72
2022/11/06 03:20:30;;;;;;;5.43;4.03;;;;;;;6.11;61.80;101082.81;5004307;28;20092;-71
2022/11/06 03:23:10;;;;;;;6.95;4.25;;;;;;;6.30;60.71;101088.56;5005515;28;20037;-72
2022/11/06 03:25:59;;;;;;;7.85;4.50;;;;;;;6.28;60.99;101090.31;4988319;28;20029;-71
2022/11/06 03:28:37;;;;;;;12.18;5.38;;;;;;;6.81;59.17;101083.22;5004068;28;20419;-71
2022/11/06 03:31:12;;;;;;;7.40;5.13;;;;;;;6.79;59.68;101087.59;5007392;28;20037;-71
2022/11/06 03:33:47;;;;;;;9.85;4.05;;;;;;;7.05;58.26;101092.25;5002947;28;20107;-73
2022/11/06 03:36:27;;;;;;;10.73;4.80;;;;;;;6.57;60.25;101089.75;4987282;28;20052;-71
2022/11/06 03:38:59;;;;;;;8.23;3.92;;;;;;;6.24;61.28;101091.25;5003743;28;21763;-70
2022/11/06 03:41:33;;;;;;;8.05;3.83;;;;;;;6.34;60.20;101105.78;4989721;28;20064;-70
2022/11/06 03:44:00;;;;;;;5.57;3.88;;;;;;;6.45;60.76;101098.66;5003603;28;20124;-69
2022/11/06 03:46:29;;;;;;;10.40;4.65;;;;;;;6.00;62.07;101101.19;5008013;28;20033;-71
2022/11/06 03:49:01;;;;;;;11.07;3.78;;;;;;;6.76;59.63;101107.59;5003505;28;20049;-72
2022/11/06 03:51:53;;;;;;;3.83;3.45;;;;;;;7.04;58.64;101102.66;5006239;28;20032;-71
2022/11/06 03:54:31;;;;;;;10.23;5.63;;;;;;;6.39;61.31;101095.31;4972877;28;20120;-71
2022/11/06 03:57:07;;;;;;;5.80;4.75;;;;;;;6.50;60.31;101109.81;4988327;28;20220;-72
2022/11/06 03:59:40;;;;;;;12.13;3.65;;;;;;;6.82;59.52;101104.84;5005167;28;20458;-71
2022/11/06 04:02:06;;;;;;;6.28;3.92;;;;;;;6.81;59.41;101096.22;5005691;28;20037;-71
2022/11/06 04:04:44;;;;;;;4.57;3.83;;;;;;;6.62;59.88;101093.16;5005225;28;20069;-65
2022/11/06 04:07:13;;;;;;;6.50;3.95;;;;;;;6.66;60.19;101101.72;5005088;28;20029;-67
2022/11/06 04:15:17;;;;;;;7.38;3.55;;;;;;;6.19;61.25;101100.84;4989227;28;20521;-74
2022/11/06 04:17:42;;;;;;;8.32;3.95;;;;;;;6.96;59.20;101104.59;4977573;28;20054;-74
2022/11/06 04:21:20;;;;;;;7.15;3.53;;;;;;;6.56;60.40;101105.41;4989977;28;20095;-74
2022/11/06 04:23:18;;;;;;;6.72;3.45;;;;;;;6.69;60.24;101104.28;5003698;28;20087;-74
2022/11/06 04:29:11;;;;;;;3.75;2.78;;;;;;;6.70;59.73;101101.63;4987877;28;20408;-75
2022/11/06 04:32:13;;;;;;;6.30;3.95;;;;;;;6.74;59.70;101094.63;4997737;28;20037;-69
2022/11/06 04:34:48;;;;;;;7.57;3.63;;;;;;;6.19;61.30;101095.66;5003390;28;20148;-69
2022/11/06 04:37:27;;;;;;;6.85;3.65;;;;;;;6.69;60.05;101097.31;4986527;28;20053;-69
2022/11/06 04:40:22;;;;;;;8.25;4.22;;;;;;;6.67;60.27;101101.69;5004520;28;20118;-69
2022/11/06 04:43:00;;;;;;;5.68;3.10;;;;;;;6.47;60.69;101096.03;5002376;28;20046;-70
2022/11/06 04:45:31;;;;;;;6.63;3.85;;;;;;;6.86;59.57;101094.38;5006265;28;20382;-70
2022/11/06 04:47:58;;;;;;;4.53;3.80;;;;;;;6.37;60.91;101097.94;5002941;28;20132;-70
2022/11/06 04:50:27;;;;;;;5.72;4.45;;;;;;;6.87;59.06;101096.09;5006209;28;20289;-69
2022/11/06 04:52:54;;;;;;;7.40;4.28;;;;;;;6.07;61.75;101094.13;5000993;28;20041;-70
2022/11/06 04:55:21;;;;;;;6.45;4.13;;;;;;;5.69;63.49;101090.47;5004994;28;20683;-69
2022/11/06 04:57:47;;;;;;;6.50;3.72;;;;;;;6.29;61.15;101084.25;4985742;28;20541;-69
2022/11/06 05:00:13;;;;;;;5.88;3.95;;;;;;;5.90;62.24;101094.41;4988160;28;20070;-69
2022/11/06 05:02:39;;;;;;;5.93;3.75;;;;;;;6.07;61.68;101092.41;5003062;28;20049;-71
2022/11/06 05:05:05;;;;;;;7.65;3.80;;;;;;;6.66;59.94;101097.41;5003626;28;20080;-70
2022/11/06 05:07:31;;;;;;;10.88;4.97;;;;;;;6.43;60.36;101095.22;4985917;28;20052;-70
2022/11/06 05:09:56;;;;;;;7.35;3.67;;;;;;;6.25;60.88;101095.56;5004436;28;20038;-72
2022/11/06 05:12:22;;;;;;;7.50;3.85;;;;;;;6.04;61.12;101087.28;4986292;28;20041;-71
2022/11/06 05:14:47;;;;;;;3.28;2.78;;;;;;;6.49;60.12;101089.94;4974467;28;20167;-70
2022/11/06 05:17:13;;;;;;;5.78;3.72;;;;;;;6.21;60.75;101083.50;4989227;28;20052;-70
2022/11/06 05:19:38;;;;;;;12.93;4.65;;;;;;;5.88;62.03;101086.69;4988764;28;20025;-72
2022/11/06 05:24:49;;;;;;;10.73;3.55;;;;;;;6.47;60.21;101081.31;5005490;28;20036;-70
2022/11/06 05:27:14;;;;;;;9.25;3.85;;;;;;;6.74;59.61;101089.44;5004805;28;20034;-71
2022/11/06 05:29:40;;;;;;;6.10;3.53;;;;;;;6.60;59.96;101089.72;5003615;28;20049;-72
2022/11/06 05:32:05;;;;;;;5.22;3.08;;;;;;;6.64;59.99;101093.97;4973858;28;20099;-68
2022/11/06 05:34:31;;;;;;;9.98;4.05;;;;;;;6.67;59.73;101082.66;5004894;28;20042;-67
2022/11/06 05:36:57;;;;;;;5.68;3.10;;;;;;;6.86;59.13;101088.31;5004319;28;20057;-68
2022/11/06 05:39:22;;;;;;;6.97;3.45;;;;;;;6.90;59.12;101100.38;4988998;28;20038;-68
2022/11/06 05:41:47;;;;;;;7.90;3.60;;;;;;;7.02;58.73;101088.84;4987307;28;20042;-67
2022/11/06 05:44:13;;;;;;;4.15;2.60;;;;;;;7.05;58.52;101086.19;5003529;28;20077;-66
2022/11/06 05:46:38;;;;;;;5.25;3.63;;;;;;;6.86;58.94;101073.59;4992567;28;20041;-67
2022/11/06 05:49:04;;;;;;;5.15;2.80;;;;;;;7.26;58.12;101077.91;5009632;28;20572;-67
2022/11/06 05:51:29;;;;;;;6.65;3.30;;;;;;;6.50;59.68;101065.66;5007671;28;20064;-67
2022/11/06 05:53:54;;;;;;;6.63;2.90;;;;;;;6.34;60.17;101074.63;5006835;28;20132;-67
2022/11/06 05:56:20;;;;;;;7.32;3.33;;;;;;;6.66;59.81;101075.75;5005743;28;20034;-67
2022/11/06 05:58:45;;;;;;;4.22;3.10;;;;;;;6.99;58.72;101068.13;5005929;28;20088;-66
2022/11/06 06:01:12;;;;;;;3.80;2.88;;;;;;;7.09;58.46;101069.66;5010620;28;20114;-67
2022/11/06 06:03:37;;;;;;;4.38;3.00;;;;;;;6.83;58.90;101070.22;5005929;28;20049;-72
2022/11/06 06:06:03;;;;;;;5.35;4.13;;;;;;;6.99;58.54;101068.13;4993770;28;20045;-74
2022/11/06 06:08:28;;;;;;;11.95;2.92;;;;;;;7.02;58.48;101068.06;5009090;28;20048;-74
2022/11/06 06:10:54;;;;;;;5.82;3.08;;;;;;;7.26;57.74;101071.84;4991055;28;20383;-74
2022/11/06 06:13:19;;;;;;;8.02;2.78;;;;;;;7.26;57.76;101067.50;4976972;28;20073;-72
2022/11/06 06:15:45;;;;;;;5.80;2.85;;;;;;;7.12;58.12;101069.56;4974873;28;20033;-72
2022/11/06 06:18:11;;;;;;;5.75;2.08;;;;;;;7.15;58.04;101074.69;5010127;28;20049;-72
2022/11/06 06:20:36;;;;;;;5.65;2.65;;;;;;;7.35;57.19;101069.03;5005235;28;20034;-72
2022/11/06 06:23:02;;;;;;;7.18;2.78;;;;;;;7.38;57.31;101060.31;5009551;28;20038;-72
2022/11/06 06:25:29;;;;;;;8.25;2.63;;;;;;;7.22;57.87;101058.09;4990626;28;20156;-72
2022/11/06 06:27:55;;;;;;;7.53;2.35;;;;;;;7.38;57.13;101061.19;4987985;28;20045;-70
2022/11/06 06:30:21;;;;;;;3.53;2.30;;;;;;;7.32;57.18;101067.38;5005306;28;20041;-69
2022/11/06 06:32:48;;;;;;;6.78;2.88;;;;;;;6.88;58.53;101071.81;5005222;28;20052;-69
2022/11/06 06:35:16;;;;;;;6.22;3.17;;;;;;;7.32;57.52;101066.50;5003052;28;20042;-70
2022/11/06 06:37:42;;;;;;;4.40;2.40;;;;;;;6.94;58.04;101062.19;4989555;28;20049;-73
2022/11/06 06:40:09;;;;;;;7.07;2.42;;;;;;;6.84;58.59;101061.50;5008105;28;20033;-73
2022/11/06 06:42:34;;;;;;;8.30;2.38;;;;;;;7.26;57.51;101054.50;4993851;28;20049;-69
2022/11/06 06:45:00;;;;;;;3.22;2.65;;;;;;;7.13;57.38;101063.47;5006876;28;20130;-68
2022/11/06 06:47:25;;;;;;;6.72;2.75;;;;;;;7.32;57.06;101059.56;5005634;28;20134;-67
2022/11/06 06:49:51;;;;;;;4.35;2.25;;;;;;;7.17;57.69;101067.72;5006553;28;20057;-67
2022/11/06 06:52:16;;;;;;;10.93;2.58;;;;;;;7.04;58.07;101081.88;4990398;28;20045;-67
2022/11/06 06:54:42;;;;;;;6.90;2.60;;;;;;;6.40;59.69;101074.53;5005695;28;20034;-70
2022/11/06 06:57:07;;;;;;;8.38;2.63;;;;;;;7.28;57.14;101070.06;5006006;28;20069;-67
2022/11/06 06:59:33;;;;;;;3.85;2.47;;;;;;;7.24;57.24;101084.88;5005346;28;20061;-68
2022/11/06 07:01:59;;;;;;;5.63;2.05;;;;;;;7.11;57.87;101080.88;5006488;28;20740;-68
2022/11/06 07:04:24;;;;;;;9.95;2.63;;;;;;;6.79;58.68;101082.41;4976234;28;20049;-68
2022/11/06 07:06:53;;;;;;;8.82;2.17;;;;;;;7.23;57.46;101083.19;4988999;28;20049;-75
2022/11/06 07:09:20;;;;;;;9.40;1.73;;;;;;;7.18;57.55;101084.19;4986907;28;20055;-74
2022/11/06 07:11:45;;;;;;;4.85;1.88;;;;;;;7.21;57.26;101082.34;5005434;28;20038;-73
2022/11/06 07:14:11;;;;;;;3.28;2.60;;;;;;;7.20;57.56;101091.06;4976454;28;20757;-72
2022/11/06 07:16:37;;;;;;;4.63;1.77;;;;;;;7.45;56.70;101090.50;4985761;28;20161;-73
2022/11/06 07:19:02;;;;;;;6.88;1.80;;;;;;;7.52;56.36;101089.44;4988306;28;20499;-73
2022/11/06 07:21:27;;;;;;;8.98;2.45;;;;;;;7.19;57.22;101091.09;5008501;28;20477;-73
2022/11/06 07:23:53;;;;;;;5.90;2.00;;;;;;;7.02;57.45;101094.91;5005506;28;20101;-75
2022/11/06 07:26:18;;;;;;;4.20;1.65;;;;;;;7.40;56.63;101094.94;4991948;28;20041;-74
2022/11/06 07:28:44;;;;;;;7.25;3.10;;;;;;;7.35;56.90;101099.38;4994283;28;20609;-74
2022/11/06 07:31:11;;;;;;;6.40;1.50;;;;;;;6.64;57.99;101093.09;5008051;28;20300;-76
2022/11/06 07:33:37;;;;;;;7.65;1.67;;;;;;;6.86;58.41;101093.50;5007784;28;20040;-76
2022/11/06 07:36:05;;;;;;;6.57;1.33;;;;;;;7.09;57.09;101095.63;5009279;28;20029;-75
2022/11/06 07:38:36;;;;;;;2.67;1.30;;;;;;;7.48;56.11;101093.00;5023452;28;20050;-76
2022/11/06 07:41:03;;;;;;;4.00;1.30;;;;;;;7.28;56.72;101096.91;5028395;28;20045;-76
2022/11/06 07:43:29;;;;;;;3.35;1.27;;;;;;;7.21;56.89;101100.56;5029499;28;20105;-76
2022/11/06 07:45:59;;;;;;;6.05;1.52;;;;;;;7.47;56.20;101094.75;5029298;28;20060;-76
2022/11/06 07:48:25;;;;;;;6.07;1.27;;;;;;;7.52;56.14;101097.25;4995764;28;20049;-75
2022/11/06 07:50:50;;;;;;;6.47;2.15;;;;;;;7.41;56.17;101087.09;5026193;28;20033;-76
2022/11/06 07:53:16;;;;;;;5.72;1.77;;;;;;;7.43;56.09;101085.31;5007503;28;20033;-74
2022/11/06 07:55:48;;;;;;;1.95;1.20;;;;;;;7.69;55.65;101082.13;4985360;28;20030;-74
2022/11/06 07:58:13;;;;;;;5.07;1.42;;;;;;;7.50;56.17;101073.88;4989277;28;20062;-73
2022/11/06 08:00:39;;;;;;;3.95;0.93;;;;;;;7.30;56.34;101068.28;5018484;28;20109;-75
2022/11/06 08:03:04;;;;;;;4.45;1.55;;;;;;;7.76;55.60;101066.34;5028165;28;20041;-75
2022/11/06 08:05:29;;;;;;;5.72;1.42;;;;;;;7.80;54.97;101068.88;5017314;28;20038;-76
2022/11/06 08:07:56;;;;;;;3.08;1.20;;;;;;;7.95;54.91;101078.00;5007748;28;20066;-74
2022/11/06 08:10:22;;;;;;;3.22;1.17;;;;;;;8.15;54.12;101065.31;4994374;28;20064;-76
2022/11/06 08:12:47;;;;;;;4.70;1.50;;;;;;;7.86;55.05;101065.22;5025629;28;20465;-75
2022/11/06 08:15:13;;;;;;;6.93;1.23;;;;;;;7.99;54.83;101056.22;5015854;28;20052;-76
2022/11/06 08:17:38;;;;;;;2.67;1.27;;;;;;;8.26;54.13;101061.59;5007767;28;20322;-77
2022/11/06 08:20:04;;;;;;;5.68;1.63;;;;;;;8.48;53.38;101060.09;5028321;28;20044;-77
2022/11/06 08:22:30;;;;;;;4.10;1.48;;;;;;;8.33;54.02;101063.13;5008919;28;20048;-75
2022/11/06 08:24:55;;;;;;;10.07;1.33;;;;;;;7.84;55.15;101059.22;4993987;28;20034;-75
2022/11/06 08:27:21;;;;;;;10.13;1.20;;;;;;;8.28;54.01;101059.78;5008479;28;20050;-75
2022/11/06 08:29:46;;;;;;;6.50;2.10;;;;;;;8.48;53.22;101060.09;5008415;28;20053;-75
2022/11/06 08:32:12;;;;;;;2.80;0.93;;;;;;;8.44;53.63;101045.44;5022785;28;20041;-71
2022/11/06 08:34:37;;;;;;;4.32;1.17;;;;;;;8.51;53.26;101043.50;5015945;28;20018;-71
2022/11/06 08:37:03;;;;;;;3.40;0.88;;;;;;;8.13;54.46;101046.28;5014529;28;20036;-72
2022/11/06 08:39:29;;;;;;;4.40;1.00;;;;;;;8.38;53.31;101035.19;5002686;28;20042;-73
2022/11/06 08:41:54;;;;;;;7.80;1.30;;;;;;;8.27;53.97;101042.44;5014543;28;20038;-73
2022/11/06 08:44:20;;;;;;;7.07;1.25;;;;;;;7.67;55.42;101025.84;5002812;28;20072;-72
2022/11/06 08:46:47;;;;;;;5.18;1.30;;;;;;;8.05;54.49;101043.03;4997689;28;20033;-72
2022/11/06 08:49:13;;;;;;;9.60;1.45;;;;;;;8.10;54.49;101041.16;5017307;28;20100;-73
2022/11/06 08:51:38;;;;;;;6.72;0.80;;;;;;;8.07;54.07;101036.06;5013137;28;20035;-71
2022/11/06 08:54:04;;;;;;;3.80;1.20;;;;;;;8.10;53.79;101032.50;5001599;28;20554;-72
2022/11/06 08:56:30;;;;;;;6.20;1.35;;;;;;;8.72;52.94;101019.47;5014547;28;20103;-72
2022/11/06 08:58:55;;;;;;;5.47;0.93;;;;;;;8.77;52.49;101007.16;4999168;28;20160;-71
2022/11/06 09:01:22;;;;;;;5.32;1.15;;;;;;;8.93;52.54;101007.53;5013829;28;20109;-72
2022/11/06 09:03:48;;;;;;;6.75;1.10;;;;;;;9.07;51.90;101008.84;5014221;28;20041;-72
2022/11/06 09:06:13;;;;;;;5.22;1.23;;;;;;;9.34;50.81;101010.59;4997181;28;20030;-70
2022/11/06 09:08:39;;;;;;;3.08;0.55;;;;;;;9.59;50.35;101001.97;5005109;28;20056;-73
2022/11/06 09:11:06;;;;;;;8.50;0.77;;;;;;;9.90;50.00;101000.91;4999102;28;20037;-71
2022/11/06 09:13:32;;;;;;;4.70;0.73;;;;;;;9.91;49.50;101013.06;4975894;28;20052;-70
2022/11/06 09:15:58;;;;;;;4.25;1.23;;;;;;;9.71;49.96;101019.78;4995208;28;20117;-72
2022/11/06 09:18:24;;;;;;;10.85;0.93;;;;;;;9.49;50.49;101017.03;4978890;28;20057;-74
2022/11/06 09:20:54;;;;;;;5.75;1.42;;;;;;;8.68;52.20;101016.97;5010635;28;20030;-74
2022/11/06 09:23:19;;;;;;;4.55;0.90;;;;;;;8.72;51.65;101013.41;5010246;28;20056;-74
2022/11/06 09:25:44;;;;;;;3.60;0.80;;;;;;;8.45;52.32;101015.91;5008383;28;20038;-74
2022/11/06 09:28:10;;;;;;;8.20;1.40;;;;;;;9.11;51.11;101000.88;5009416;28;20630;-74
2022/11/06 09:30:36;;;;;;;7.05;1.85;;;;;;;9.04;51.21;101014.19;5007663;28;20560;-74
2022/11/06 09:33:01;;;;;;;3.13;1.08;;;;;;;9.18;50.77;101004.16;5009010;28;20414;-74
2022/11/06 09:35:29;;;;;;;5.63;1.20;;;;;;;9.44;50.26;101002.47;4987605;28;20487;-74
2022/11/06 09:38:00;;;;;;;4.18;0.98;;;;;;;9.71;49.84;101006.75;5006724;28;20499;-74
2022/11/06 09:40:54;;;;;;;3.60;1.30;;;;;;;9.77;49.66;101003.94;4993235;28;20366;-74
2022/11/06 09:43:44;;;;;;;1.25;0.60;;;;;;;9.78;49.21;101010.00;4982654;28;20483;-74
2022/11/06 09:46:25;;;;;;;5.07;1.65;;;;;;;9.53;49.53;100996.94;4989983;28;20033;-75
2022/11/06 09:49:06;;;;;;;5.40;0.82;;;;;;;9.82;49.37;100993.34;4988904;28;20121;-75
2022/11/06 09:51:41;;;;;;;4.03;0.90;;;;;;;9.69;49.27;100992.03;4978423;28;20505;-73
2022/11/06 09:54:24;;;;;;;7.22;1.02;;;;;;;8.89;51.21;100992.03;4988940;28;20387;-74
2022/11/06 09:56:57;;;;;;;6.15;1.13;;;;;;;9.30;50.42;100987.28;4993354;28;20037;-73
2022/11/06 09:59:22;;;;;;;5.75;1.10;;;;;;;9.93;48.79;100983.38;5008640;28;20148;-73
2022/11/06 10:01:53;;;;;;;7.70;1.33;;;;;;;9.97;48.58;100986.75;4990591;28;20132;-74
2022/11/06 10:04:40;;;;;;;4.95;0.90;;;;;;;9.48;49.65;100991.03;4991491;28;20156;-72
2022/11/06 10:07:27;;;;;;;4.78;0.70;;;;;;;9.86;48.60;100987.13;5007204;28;20120;-73
2022/11/06 10:09:52;;;;;;;3.60;1.13;;;;;;;10.15;48.45;100988.69;5006900;28;20563;-73
2022/11/06 10:12:52;;;;;;;4.18;1.05;;;;;;;10.04;48.63;100977.78;4989430;28;20482;-72
2022/11/06 10:15:33;;;;;;;4.75;0.85;;;;;;;10.21;48.19;100978.03;5008135;28;20083;-76
2022/11/06 10:18:17;;;;;;;6.15;1.10;;;;;;;10.31;47.62;100967.25;5008032;28;20049;-75
2022/11/06 10:20:56;;;;;;;5.15;0.95;;;;;;;9.91;49.14;100971.31;4991198;28;20021;-74
2022/11/06 10:23:41;;;;;;;10.05;1.38;;;;;;;9.75;49.61;100966.59;5004969;28;20057;-73
2022/11/06 10:26:14;;;;;;;3.00;0.80;;;;;;;9.30;52.30;100962.03;4988793;28;20030;-73
2022/11/06 10:29:09;;;;;;;1.70;0.68;;;;;;;9.58;51.67;100961.94;4980788;28;20902;-74
2022/11/06 10:31:47;;;;;;;6.07;1.42;;;;;;;9.80;51.48;100964.69;4988450;28;20140;-74
2022/11/06 10:34:40;;;;;;;4.97;0.90;;;;;;;9.68;51.62;100962.50;4988951;28;20126;-72
2022/11/06 10:37:20;;;;;;;4.22;1.17;;;;;;;9.57;51.28;100946.34;5003789;28;20041;-75
2022/11/06 10:39:47;;;;;;;4.05;0.80;;;;;;;9.50;51.46;100944.84;5004262;28;20029;-72
2022/11/06 10:42:19;;;;;;;10.15;1.85;;;;;;;8.79;52.46;100944.56;4990125;28;20084;-73
2022/11/06 10:44:49;;;;;;;3.70;1.00;;;;;;;9.59;51.40;100947.16;4986737;28;20393;-73
2022/11/06 10:47:44;;;;;;;4.70;0.55;;;;;;;9.79;51.26;100955.16;5004605;28;20092;-74
2022/11/06 10:50:13;;;;;;;4.80;1.00;;;;;;;9.80;51.54;100953.41;5001709;28;20048;-73
2022/11/06 10:52:56;;;;;;;5.40;0.90;;;;;;;9.67;52.13;100944.25;4982789;28;20354;-72
2022/11/06 10:55:55;;;;;;;3.67;0.68;;;;;;;9.96;51.76;100940.66;5005755;28;20482;-72
2022/11/06 10:58:26;;;;;;;8.18;0.70;;;;;;;9.76;52.39;100936.94;4987798;28;20045;-72
2022/11/06 11:00:55;;;;;;;1.93;0.53;;;;;;;9.40;53.13;100932.13;5002190;28;20427;-73
2022/11/06 11:03:54;;;;;;;2.42;0.60;;;;;;;9.83;52.73;100927.19;5001271;28;20046;-74
2022/11/06 11:06:20;;;;;;;2.35;0.60;;;;;;;9.69;52.82;100925.03;4995761;28;20042;-72
2022/11/06 11:08:47;;;;;;;2.42;0.50;;;;;;;9.99;52.23;100924.84;4984546;28;20060;-72
2022/11/06 11:11:16;;;;;;;5.63;0.68;;;;;;;9.63;52.59;100924.41;5005257;28;20137;-72
2022/11/06 11:13:47;;;;;;;1.83;0.43;;;;;;;10.36;50.97;100926.09;5001466;28;20045;-72
2022/11/06 11:16:20;;;;;;;2.22;0.65;;;;;;;10.30;50.63;100928.94;4988688;28;20446;-71
2022/11/06 11:18:47;;;;;;;3.75;0.38;;;;;;;10.45;51.06;100917.91;5001473;28;20474;-71
2022/11/06 11:21:26;;;;;;;2.75;1.33;;;;;;;9.96;52.47;100927.59;5005863;28;20108;-73
2022/11/06 11:24:08;;;;;;;2.83;0.45;;;;;;;10.00;51.96;100921.34;4983607;28;20049;-73
2022/11/06 11:26:47;;;;;;;5.68;0.80;;;;;;;10.09;51.70;100920.16;5002760;28;20595;-74
2022/11/06 11:29:18;;;;;;;5.15;0.93;;;;;;;10.10;51.42;100925.34;4984680;28;20060;-73
2022/11/06 11:31:49;;;;;;;5.20;1.07;;;;;;;9.93;52.06;100912.06;4988447;28;20030;-74
2022/11/06 11:34:18;;;;;;;3.93;2.10;;;;;;;9.96;52.14;100907.53;4984106;28;20046;-72
2022/11/06 11:37:04;;;;;;;1.80;1.17;;;;;;;9.95;52.78;100899.78;4982389;28;20092;-74
2022/11/06 11:39:36;;;;;;;10.43;1.00;;;;;;;9.98;52.14;100904.88;4972089;28;20042;-73
2022/11/06 11:42:27;;;;;;;1.23;0.60;;;;;;;10.53;51.49;100887.13;5003451;28;20033;-72
2022/11/06 11:45:08;;;;;;;4.28;0.50;;;;;;;10.64;51.13;100879.69;5002800;28;20033;-73
2022/11/06 11:47:37;;;;;;;5.10;0.75;;;;;;;10.61;50.99;100874.56;5002471;28;20054;-73
2022/11/06 11:50:33;;;;;;;4.30;0.85;;;;;;;11.15;50.17;100868.91;4987355;28;20034;-73
2022/11/06 11:53:18;;;;;;;1.27;0.57;;;;;;;10.92;49.39;100862.91;4972548;28;20152;-73
2022/11/06 11:55:47;;;;;;;3.88;0.50;;;;;;;11.06;50.01;100859.69;4971409;28;20510;-72
2022/11/06 11:58:25;;;;;;;5.68;0.57;;;;;;;11.09;48.98;100854.34;4986007;28;20057;-72
2022/11/06 12:00:55;;;;;;;2.88;0.60;;;;;;;11.56;48.17;100845.34;4985901;28;20300;-73
2022/11/06 12:03:25;;;;;;;4.57;0.65;;;;;;;11.27;49.57;100837.00;4994769;28;20053;-74